Brooks, KY (40109)

6:05 AM EST on December 22, 2014 (GMT -0500)
Pioneer Village | Change Station
CLOSE
Current Station
Personal Weather Station
Location: Louisville, KY
Elevation: 545 ft
Nearby Weather Stations

Elev 545 ft 38.07 °N, 85.68 °W | Updated 26 seconds ago

Overcast
Overcast
34.7 °F
Feels Like 35 °F
N
0.0
Wind Variable Wind from SW
Gusts 0.0 mph

Today
High -- | Low -- °F
--% Chance of Precip.
Yesterday
High -- | Low -- °F
Precip. -- in
7:55 AM 5:27 PM
New Moon, 0% visible
Pressure 30.00 in
Visibility 10.0 miles
Clouds Scattered Clouds 4600 ft
Overcast 10000 ft
Windchill 35 °F
Dew Point 30 °F
Humidity 82%
Rainfall 0.00 in
Snow Depth Not available.
UV 0 out of 12
Pollen .10 out of 12
Air Quality Not available.
Flu Activity Not available.
METAR KSDF 221056Z 00000KT 10SM SCT046 OVC100 03/M02 A2999 RMK AO2 SLP158 T00281017

More Conditions Fewer Conditions

Pressure 30.00 in
Visibility 10.0 miles
Clouds Scattered Clouds 4600 ft
Overcast 10000 ft
Windchill 35 °F
Dew Point 30 °F
Humidity 82%
Rainfall 0.00 in
Snow Depth Not available.
UV 0 out of 12
Pollen .10 out of 12
Air Quality Not available.
Flu Activity Not available.
METAR KSDF 221056Z 00000KT 10SM SCT046 OVC100 03/M02 A2999 RMK AO2 SLP158 T00281017

More Conditions Fewer Conditions

10-Day Weather Forecast

Almanac

Astronomy

Dec. 22, 2014 Rise Set
Actual Time
Civil Twilight
Nautical Twilight
Astronomical Twilight
Moon
Length of Visible Light
Length of Day
Tomorrow will be .
, % of the Moon is Illuminated

Today's Extremes

State Highs State Lows

Community

WunderPhotos

Upload Photos

1,779,583 photos uploaded!

WunderBlogs® & News

Nearby

Air Quality

  Air Quality AQ Index Pollutant
Not available.

Snow Depth

Station Depth Elevation

Earthquake Activity

City Distance Mag. Time & Date
Minimum magnitude displayed is 2.5.

Coastal Water Temperatures

Place Temperature

Nearby Weather Stations